Time;durP1;ratioP1;P1;durP2;ratioP2;P2;SDS_P1;SDS_P2;PMS_P1;PMS_P2;Temp;Humidity;BMP_temperature;BMP_pressure;BME280_temperature;BME280_humidity;BME280_pressure;Samples;Min_cycle;Max_cycle;Signal;HPM_P1;HPM_P2
2023/09/08 00:01:24;;;;;;;12.93;11.32;;;18.80;99.90;;;;;;5044218;28;20090;-47
2023/09/08 00:03:50;;;;;;;16.92;12.02;;;18.80;99.90;;;;;;5043993;28;20422;-50
2023/09/08 00:06:15;;;;;;;13.18;11.57;;;18.80;99.90;;;;;;5043653;28;20112;-50
2023/09/08 00:08:43;;;;;;;13.35;11.38;;;18.80;99.90;;;;;;5044052;28;20056;-50
2023/09/08 00:11:08;;;;;;;13.70;12.05;;;18.80;99.90;;;;;;5044285;28;20052;-49
2023/09/08 00:13:34;;;;;;;14.35;12.07;;;18.80;99.90;;;;;;5043948;28;20419;-47
2023/09/08 00:15:59;;;;;;;12.38;11.30;;;18.80;99.90;;;;;;5043839;28;20155;-49
2023/09/08 00:18:25;;;;;;;13.27;11.98;;;18.70;99.90;;;;;;5044147;28;20420;-50
2023/09/08 00:20:51;;;;;;;12.77;11.50;;;18.70;99.90;;;;;;5044461;28;20076;-50
2023/09/08 00:23:16;;;;;;;13.77;11.10;;;18.60;99.90;;;;;;5043488;28;20495;-50
2023/09/08 00:25:42;;;;;;;13.15;11.80;;;18.70;99.90;;;;;;5043799;28;20458;-49
2023/09/08 00:28:07;;;;;;;14.52;11.82;;;18.60;99.90;;;;;;5025782;28;20049;-47
2023/09/08 00:30:33;;;;;;;12.65;11.07;;;18.50;99.90;;;;;;5044271;28;20102;-47
2023/09/08 00:32:58;;;;;;;13.43;12.07;;;18.40;99.90;;;;;;5025954;28;20386;-50
2023/09/08 00:35:24;;;;;;;11.90;10.77;;;18.40;99.90;;;;;;5025344;28;20047;-49
2023/09/08 00:37:50;;;;;;;12.95;11.70;;;18.30;99.90;;;;;;5025676;28;20044;-49
2023/09/08 00:40:15;;;;;;;14.38;12.25;;;18.30;99.90;;;;;;5043732;28;20036;-50
2023/09/08 00:42:41;;;;;;;13.05;11.77;;;18.20;99.90;;;;;;5044056;28;20094;-49
2023/09/08 00:45:07;;;;;;;12.88;11.70;;;18.20;99.90;;;;;;5043462;28;20220;-51
2023/09/08 00:47:34;;;;;;;12.73;11.50;;;18.20;99.90;;;;;;5000822;28;20076;-49
2023/09/08 00:50:00;;;;;;;14.50;12.32;;;18.10;99.90;;;;;;5025814;28;20090;-49
2023/09/08 00:52:31;;;;;;;12.95;11.48;;;18.10;99.90;;;;;;5043940;28;20040;-49
2023/09/08 00:54:56;;;;;;;13.48;12.07;;;18.10;99.90;;;;;;5043417;28;20115;-50
2023/09/08 00:57:22;;;;;;;16.92;12.40;;;18.10;99.90;;;;;;5043580;28;20045;-46
2023/09/08 00:59:48;;;;;;;13.45;12.07;;;18.10;99.90;;;;;;5043841;28;20090;-49
2023/09/08 01:02:14;;;;;;;12.55;11.25;;;18.00;99.90;;;;;;5043418;28;20536;-48
2023/09/08 01:04:41;;;;;;;13.57;12.27;;;18.00;99.90;;;;;;5043500;28;20041;-50
2023/09/08 01:07:07;;;;;;;13.25;11.38;;;18.00;99.90;;;;;;5044930;28;20049;-47
2023/09/08 01:09:35;;;;;;;14.23;12.63;;;18.00;99.90;;;;;;5012729;28;20063;-50
2023/09/08 01:12:06;;;;;;;13.68;12.48;;;18.00;99.90;;;;;;5040230;28;20511;-50
2023/09/08 01:14:32;;;;;;;13.52;12.35;;;18.00;99.90;;;;;;5047175;28;20459;-48
2023/09/08 01:16:57;;;;;;;13.00;11.70;;;18.00;99.90;;;;;;5046876;28;20127;-49
2023/09/08 01:19:23;;;;;;;14.63;12.88;;;18.00;99.90;;;;;;5029314;28;20032;-48
2023/09/08 01:22:13;;;;;;;15.55;13.90;;;18.00;99.90;;;;;;5028822;28;20472;-50
2023/09/08 01:25:06;;;;;;;14.43;13.02;;;18.00;99.90;;;;;;5047057;28;20037;-46
2023/09/08 01:27:34;;;;;;;15.52;14.00;;;18.00;99.90;;;;;;5028581;28;20591;-46
2023/09/08 01:30:02;;;;;;;15.00;13.50;;;17.90;99.90;;;;;;5046811;28;20371;-46
2023/09/08 01:32:29;;;;;;;15.93;14.27;;;17.90;99.90;;;;;;5028972;28;20116;-47
2023/09/08 01:34:57;;;;;;;15.25;13.73;;;17.90;99.90;;;;;;5047017;28;20098;-47
2023/09/08 01:37:23;;;;;;;16.05;14.35;;;17.90;99.90;;;;;;5011854;28;20056;-46
2023/09/08 01:39:49;;;;;;;15.25;13.68;;;17.90;99.90;;;;;;5047151;28;20048;-46
2023/09/08 01:42:15;;;;;;;14.68;13.25;;;17.80;99.90;;;;;;5045853;28;20507;-45
2023/09/08 01:44:40;;;;;;;15.68;14.27;;;17.80;99.90;;;;;;5027859;28;20045;-46
2023/09/08 01:47:06;;;;;;;14.90;13.48;;;17.70;99.90;;;;;;5028341;28;20099;-47
2023/09/08 01:49:31;;;;;;;15.60;13.95;;;17.70;99.90;;;;;;5046924;28;20508;-47
2023/09/08 01:51:57;;;;;;;17.52;15.70;;;17.70;99.90;;;;;;5028666;28;20053;-46
2023/09/08 01:54:23;;;;;;;17.92;15.40;;;17.70;99.90;;;;;;5028459;28;20451;-47
2023/09/08 01:56:48;;;;;;;15.93;14.48;;;17.60;99.90;;;;;;5028164;28;20122;-47
2023/09/08 01:59:14;;;;;;;16.30;14.75;;;17.60;99.90;;;;;;5046289;28;20495;-47
2023/09/08 02:01:40;;;;;;;16.40;14.82;;;17.60;99.90;;;;;;5028521;28;20045;-46
2023/09/08 02:04:05;;;;;;;15.05;13.65;;;17.50;99.90;;;;;;5046426;28;20041;-46
2023/09/08 02:06:31;;;;;;;16.75;14.65;;;17.50;99.90;;;;;;5027518;28;20301;-46
2023/09/08 02:08:57;;;;;;;15.90;14.38;;;17.50;99.90;;;;;;5046286;28;20052;-47
2023/09/08 02:11:22;;;;;;;14.80;13.60;;;17.50;99.90;;;;;;5027907;28;20528;-47
2023/09/08 02:13:48;;;;;;;16.05;14.65;;;17.50;99.90;;;;;;5045678;28;20098;-49
2023/09/08 02:16:15;;;;;;;16.73;15.13;;;17.50;99.90;;;;;;5045615;28;20049;-46
2023/09/08 02:18:44;;;;;;;16.80;15.10;;;17.40;99.90;;;;;;5028019;28;20068;-47
2023/09/08 02:21:10;;;;;;;17.48;15.77;;;17.40;99.90;;;;;;5046347;28;20183;-46
2023/09/08 02:23:36;;;;;;;16.10;14.68;;;17.40;99.90;;;;;;5046018;28;20119;-47
2023/09/08 02:26:02;;;;;;;17.25;15.20;;;17.40;99.90;;;;;;5045521;28;20055;-47
2023/09/08 02:28:27;;;;;;;16.65;15.07;;;17.30;99.90;;;;;;5045768;28;20135;-46
2023/09/08 02:30:54;;;;;;;17.77;15.98;;;17.30;99.90;;;;;;5046140;28;20420;-46
2023/09/08 02:33:19;;;;;;;16.30;14.77;;;17.30;99.90;;;;;;5027304;28;20087;-47
2023/09/08 02:35:45;;;;;;;17.00;14.32;;;17.20;99.90;;;;;;5045827;28;20147;-47
2023/09/08 02:38:11;;;;;;;17.42;15.82;;;17.20;99.90;;;;;;5045748;28;20044;-47
2023/09/08 02:40:36;;;;;;;17.80;16.30;;;17.20;99.90;;;;;;5045728;28;20037;-47
2023/09/08 02:43:02;;;;;;;16.52;15.02;;;17.10;99.90;;;;;;5045185;28;20049;-48
2023/09/08 02:45:28;;;;;;;18.02;16.30;;;17.10;99.90;;;;;;5027122;28;20056;-48
2023/09/08 02:47:54;;;;;;;17.13;15.63;;;17.10;99.90;;;;;;5040433;28;20083;-48
2023/09/08 02:50:20;;;;;;;17.73;15.93;;;17.10;99.90;;;;;;5027374;28;20041;-47
2023/09/08 02:52:46;;;;;;;17.15;15.45;;;17.10;99.90;;;;;;5045236;28;20049;-49
2023/09/08 02:55:12;;;;;;;17.95;16.15;;;17.10;99.90;;;;;;5026850;28;20064;-46
2023/09/08 02:57:39;;;;;;;17.45;15.95;;;17.10;99.90;;;;;;5027064;28;20036;-46
2023/09/08 03:00:08;;;;;;;17.15;15.65;;;17.10;99.90;;;;;;5027248;28;20094;-47
2023/09/08 03:02:34;;;;;;;18.10;16.25;;;17.10;99.90;;;;;;5027273;28;20707;-46
2023/09/08 03:05:00;;;;;;;18.88;16.40;;;17.00;99.90;;;;;;5044255;28;20143;-48
2023/09/08 03:07:27;;;;;;;19.08;17.30;;;17.00;99.90;;;;;;5026676;28;20152;-49
2023/09/08 03:09:53;;;;;;;17.67;15.98;;;17.00;99.90;;;;;;5044952;28;20176;-46
2023/09/08 03:12:18;;;;;;;19.65;16.30;;;16.90;99.90;;;;;;5027171;28;20048;-48
2023/09/08 03:14:44;;;;;;;17.17;15.52;;;16.90;99.90;;;;;;5044631;28;20045;-49
2023/09/08 03:17:10;;;;;;;17.40;15.90;;;16.90;99.90;;;;;;5044756;28;20407;-46
2023/09/08 03:19:36;;;;;;;17.75;16.05;;;16.80;99.90;;;;;;5026895;28;20122;-50
2023/09/08 03:22:02;;;;;;;16.98;15.57;;;16.80;99.90;;;;;;5027047;28;20053;-47
2023/09/08 03:24:27;;;;;;;18.08;16.58;;;16.80;99.90;;;;;;5044124;28;20036;-46
2023/09/08 03:26:53;;;;;;;17.67;16.08;;;16.80;99.90;;;;;;5044371;28;20044;-47
2023/09/08 03:29:18;;;;;;;18.25;16.55;;;16.80;99.90;;;;;;5022307;28;20033;-47
2023/09/08 03:31:44;;;;;;;18.77;16.13;;;16.70;99.90;;;;;;5044739;28;20458;-48
2023/09/08 03:34:09;;;;;;;18.90;17.23;;;16.70;99.90;;;;;;5044324;28;20048;-46
2023/09/08 03:36:38;;;;;;;20.00;16.73;;;16.60;99.90;;;;;;5044644;28;20044;-47
2023/09/08 03:39:03;;;;;;;17.75;16.23;;;16.70;99.90;;;;;;5044388;28;20033;-47
2023/09/08 03:41:29;;;;;;;17.88;16.17;;;16.60;99.90;;;;;;5027014;28;20467;-46
2023/09/08 03:43:54;;;;;;;18.55;16.52;;;16.70;99.90;;;;;;5044653;28;20045;-47
2023/09/08 03:46:20;;;;;;;18.02;16.40;;;16.70;99.90;;;;;;5021656;28;20048;-46
2023/09/08 03:48:46;;;;;;;18.35;16.52;;;16.60;99.90;;;;;;5020319;28;20139;-46
2023/09/08 03:51:12;;;;;;;18.08;16.35;;;16.60;99.90;;;;;;5026624;28;20041;-47
2023/09/08 03:53:37;;;;;;;18.48;16.77;;;16.60;99.90;;;;;;5043790;28;20045;-47
2023/09/08 03:56:03;;;;;;;19.17;17.23;;;16.60;99.90;;;;;;5026028;28;20047;-47
2023/09/08 03:58:29;;;;;;;18.23;16.50;;;16.60;99.90;;;;;;5043919;28;20781;-48
2023/09/08 04:00:57;;;;;;;19.35;17.50;;;16.60;99.90;;;;;;5026672;28;20045;-50
2023/09/08 04:03:22;;;;;;;18.17;16.67;;;16.50;99.90;;;;;;5009303;28;20124;-47
2023/09/08 04:05:48;;;;;;;18.92;17.33;;;16.60;99.90;;;;;;5026009;28;20480;-47
2023/09/08 04:08:14;;;;;;;17.60;15.95;;;16.50;99.90;;;;;;5044020;28;20044;-47
2023/09/08 04:10:39;;;;;;;19.40;17.60;;;16.50;99.90;;;;;;5006420;28;20057;-49
2023/09/08 04:13:05;;;;;;;20.60;18.45;;;16.50;99.90;;;;;;5022515;28;20953;-47
2023/09/08 04:15:31;;;;;;;20.17;18.42;;;16.50;99.90;;;;;;5030396;28;20045;-47
2023/09/08 04:17:57;;;;;;;19.40;17.55;;;16.40;99.90;;;;;;5017947;28;20068;-49
2023/09/08 04:20:22;;;;;;;20.13;18.23;;;16.40;99.90;;;;;;5022890;28;20065;-47
2023/09/08 04:22:48;;;;;;;19.48;17.70;;;16.30;99.90;;;;;;5023682;28;20038;-47
2023/09/08 04:25:14;;;;;;;19.75;17.75;;;16.20;99.90;;;;;;5022399;28;20123;-48
2023/09/08 04:27:40;;;;;;;20.83;18.67;;;16.20;99.90;;;;;;5026564;28;20041;-47
2023/09/08 04:30:06;;;;;;;17.45;15.95;;;16.10;99.90;;;;;;5024212;28;20120;-47
2023/09/08 04:32:32;;;;;;;17.98;16.20;;;16.00;99.90;;;;;;5022570;28;20125;-50
2023/09/08 04:34:57;;;;;;;19.98;17.95;;;16.00;99.90;;;;;;5023223;28;20128;-48
2023/09/08 04:37:23;;;;;;;18.98;17.15;;;16.00;99.90;;;;;;5022593;28;20053;-48
2023/09/08 04:39:48;;;;;;;19.35;17.65;;;16.00;99.90;;;;;;5006035;28;20456;-46
2023/09/08 04:42:14;;;;;;;18.45;16.70;;;16.00;99.90;;;;;;5027447;28;20169;-47
2023/09/08 04:44:39;;;;;;;18.63;17.02;;;16.00;99.90;;;;;;5027515;28;20045;-47
2023/09/08 04:47:05;;;;;;;18.92;17.10;;;16.00;99.90;;;;;;5019388;28;20585;-47
2023/09/08 04:49:31;;;;;;;19.50;17.70;;;15.90;99.90;;;;;;5026619;28;20485;-47
2023/09/08 04:51:56;;;;;;;18.83;17.23;;;15.90;99.90;;;;;;5028178;28;20422;-50
2023/09/08 04:54:26;;;;;;;20.40;17.73;;;15.90;99.90;;;;;;5025922;28;20070;-48
2023/09/08 04:56:52;;;;;;;20.00;18.30;;;15.90;99.90;;;;;;5026040;28;20103;-49
2023/09/08 04:59:17;;;;;;;19.48;17.50;;;15.80;99.90;;;;;;5026099;28;20041;-47
2023/09/08 05:01:43;;;;;;;17.77;16.20;;;15.80;99.90;;;;;;5027917;28;20598;-47
2023/09/08 05:04:10;;;;;;;20.35;18.10;;;15.80;99.90;;;;;;5035648;28;20060;-50
2023/09/08 05:06:36;;;;;;;19.10;17.25;;;15.80;99.90;;;;;;5025887;28;20052;-47
2023/09/08 05:09:01;;;;;;;19.35;17.55;;;15.80;99.90;;;;;;5033304;28;20061;-47
2023/09/08 05:11:27;;;;;;;19.00;17.23;;;15.80;99.90;;;;;;5029260;28;20045;-47
2023/09/08 05:13:53;;;;;;;20.60;18.70;;;15.90;99.90;;;;;;5028909;28;20045;-48
2023/09/08 05:16:25;;;;;;;18.38;16.58;;;15.90;99.90;;;;;;5046920;28;20114;-47
2023/09/08 05:18:51;;;;;;;20.90;18.20;;;15.90;99.90;;;;;;5047375;28;20047;-48
2023/09/08 05:21:17;;;;;;;20.15;18.20;;;15.90;99.90;;;;;;5047064;28;20049;-48
2023/09/08 05:23:42;;;;;;;18.65;16.95;;;16.00;99.90;;;;;;5046483;28;20045;-47
2023/09/08 05:26:08;;;;;;;17.98;16.48;;;16.00;99.90;;;;;;5046880;28;20159;-47
2023/09/08 05:28:34;;;;;;;19.35;17.63;;;16.10;99.90;;;;;;5047453;28;20465;-48
2023/09/08 05:30:59;;;;;;;19.25;17.45;;;16.20;99.90;;;;;;5028921;28;20411;-48
2023/09/08 05:33:25;;;;;;;20.52;18.48;;;16.30;99.90;;;;;;5028911;28;20044;-46
2023/09/08 05:35:50;;;;;;;18.67;16.50;;;16.50;99.90;;;;;;5046816;28;20069;-48
2023/09/08 05:38:16;;;;;;;17.65;15.95;;;16.70;99.90;;;;;;5028872;28;20098;-47
2023/09/08 05:40:41;;;;;;;17.70;16.00;;;16.90;99.90;;;;;;5046960;28;20041;-50
2023/09/08 05:43:07;;;;;;;18.58;16.95;;;17.10;99.90;;;;;;5046965;28;20472;-47
2023/09/08 05:45:33;;;;;;;17.60;16.13;;;17.20;99.90;;;;;;5046603;28;20032;-49
2023/09/08 05:47:58;;;;;;;17.90;15.95;;;17.80;99.90;;;;;;5038404;28;20033;-48
2023/09/08 05:50:24;;;;;;;17.30;15.52;;;19.00;99.90;;;;;;5028239;28;20128;-48
2023/09/08 05:52:50;;;;;;;16.45;14.93;;;20.10;99.90;;;;;;5046093;28;20043;-51
2023/09/08 05:55:16;;;;;;;17.35;15.57;;;21.40;99.90;;;;;;5046028;28;20144;-48
2023/09/08 05:57:42;;;;;;;16.23;14.55;;;22.40;99.90;;;;;;5028832;28;20048;-49
2023/09/08 06:00:08;;;;;;;15.60;14.00;;;23.30;99.90;;;;;;5046686;28;20701;-48
2023/09/08 06:02:34;;;;;;;15.50;14.13;;;24.10;99.90;;;;;;5027916;28;20048;-49
2023/09/08 06:04:59;;;;;;;15.05;13.60;;;24.80;99.90;;;;;;5027777;28;20106;-51
2023/09/08 06:07:25;;;;;;;15.05;13.45;;;25.40;99.90;;;;;;5028933;28;20057;-51
2023/09/08 06:09:51;;;;;;;15.00;13.73;;;25.90;99.90;;;;;;5046498;28;20110;-49
2023/09/08 06:12:16;;;;;;;13.93;12.57;;;26.40;99.90;;;;;;5046580;28;20056;-52
2023/09/08 06:14:42;;;;;;;14.52;13.15;;;26.50;99.10;;;;;;5045437;28;20124;-51
2023/09/08 06:17:08;;;;;;;14.25;13.15;;;26.80;98.70;;;;;;5046115;28;20041;-48
2023/09/08 06:19:33;;;;;;;13.32;12.32;;;26.90;97.80;;;;;;5045885;28;20048;-51
2023/09/08 06:21:59;;;;;;;14.02;12.68;;;27.20;98.00;;;;;;5028265;28;20174;-51
2023/09/08 06:24:24;;;;;;;14.23;13.00;;;27.10;97.20;;;;;;5027971;28;20507;-51
2023/09/08 06:26:50;;;;;;;14.35;12.98;;;27.40;97.70;;;;;;5027688;28;20041;-51
2023/09/08 06:29:16;;;;;;;12.80;11.52;;;27.60;97.10;;;;;;5045777;28;20041;-49
2023/09/08 06:31:41;;;;;;;13.60;12.30;;;27.90;97.20;;;;;;5046447;28;20431;-52
2023/09/08 06:34:07;;;;;;;14.88;12.20;;;28.30;96.10;;;;;;5045418;28;20057;-51
2023/09/08 06:36:32;;;;;;;13.23;12.02;;;28.30;96.00;;;;;;5010767;28;20168;-50
2023/09/08 06:38:58;;;;;;;13.00;11.90;;;28.40;95.30;;;;;;5045340;28;20154;-49
2023/09/08 06:41:23;;;;;;;13.70;12.23;;;28.40;95.70;;;;;;5046334;28;20047;-51
2023/09/08 06:43:49;;;;;;;14.15;12.48;;;28.50;95.10;;;;;;5027177;28;20136;-50
2023/09/08 06:46:15;;;;;;;13.38;12.15;;;28.60;95.00;;;;;;5023294;28;20037;-52
2023/09/08 06:48:41;;;;;;;12.57;11.35;;;28.60;95.00;;;;;;5040441;28;20127;-48
2023/09/08 06:51:06;;;;;;;12.75;11.65;;;28.90;94.80;;;;;;5045021;28;20032;-51
2023/09/08 06:53:32;;;;;;;17.35;11.93;;;29.10;94.90;;;;;;5009824;28;20487;-52
2023/09/08 06:55:58;;;;;;;12.82;11.57;;;29.40;95.20;;;;;;5026324;28;20107;-50
2023/09/08 06:58:23;;;;;;;13.13;11.82;;;29.60;94.40;;;;;;5027018;28;20139;-52
2023/09/08 07:00:50;;;;;;;13.23;12.05;;;29.70;93.90;;;;;;5045252;28;20583;-51
2023/09/08 07:03:16;;;;;;;12.85;11.68;;;29.60;94.20;;;;;;5044674;28;20041;-52
2023/09/08 07:05:42;;;;;;;12.70;11.60;;;29.30;94.50;;;;;;5044781;28;20052;-49
2023/09/08 07:08:07;;;;;;;12.35;11.25;;;28.60;95.00;;;;;;5026804;28;20063;-51
2023/09/08 07:10:33;;;;;;;13.23;11.98;;;28.00;95.70;;;;;;5044773;28;20056;-51
2023/09/08 07:12:59;;;;;;;13.10;11.77;;;27.50;95.90;;;;;;5026533;28;20060;-48
2023/09/08 07:15:24;;;;;;;13.30;12.30;;;27.10;96.70;;;;;;5009519;28;20080;-52
2023/09/08 07:17:50;;;;;;;13.25;12.05;;;26.70;97.40;;;;;;5043992;28;20050;-51
2023/09/08 07:20:16;;;;;;;16.60;12.30;;;26.50;97.90;;;;;;5010475;28;20041;-52
2023/09/08 07:22:41;;;;;;;14.35;12.85;;;26.40;98.00;;;;;;5044376;28;20073;-50
2023/09/08 07:25:08;;;;;;;13.20;11.88;;;26.30;98.00;;;;;;5044397;28;20088;-53
2023/09/08 07:27:34;;;;;;;13.45;12.23;;;26.10;98.50;;;;;;5044562;28;20174;-51
2023/09/08 07:29:59;;;;;;;13.18;12.07;;;26.00;98.50;;;;;;5026622;28;20040;-52
2023/09/08 07:32:25;;;;;;;13.13;11.80;;;25.80;99.00;;;;;;5026056;28;20045;-52
2023/09/08 07:34:54;;;;;;;12.90;11.90;;;25.80;99.00;;;;;;5026285;28;20446;-52
2023/09/08 07:37:23;;;;;;;13.75;12.20;;;25.80;99.30;;;;;;5043050;28;20507;-52
2023/09/08 07:39:50;;;;;;;13.20;11.50;;;25.70;99.30;;;;;;5010055;28;20570;-52
2023/09/08 07:42:16;;;;;;;12.63;11.43;;;25.80;99.80;;;;;;5041213;28;20084;-52
2023/09/08 07:44:42;;;;;;;14.43;12.02;;;25.70;99.80;;;;;;5043605;28;20818;-52
2023/09/08 07:47:08;;;;;;;13.30;12.13;;;25.70;99.80;;;;;;5018692;28;20045;-51
2023/09/08 07:49:34;;;;;;;13.35;12.05;;;25.60;99.50;;;;;;5036692;28;20373;-52
2023/09/08 07:52:00;;;;;;;13.00;11.80;;;25.60;99.90;;;;;;5043264;28;20649;-51
2023/09/08 07:54:25;;;;;;;14.55;12.60;;;25.50;99.90;;;;;;5025191;28;20045;-51
2023/09/08 07:56:51;;;;;;;13.80;12.35;;;25.60;99.90;;;;;;5043168;28;20196;-49
2023/09/08 07:59:16;;;;;;;13.45;12.05;;;25.60;99.90;;;;;;5043281;28;20087;-48
2023/09/08 08:01:42;;;;;;;13.70;12.18;;;25.60;99.90;;;;;;5023059;28;20132;-49
2023/09/08 08:04:08;;;;;;;12.38;11.18;;;25.60;99.90;;;;;;5021720;28;20049;-49
2023/09/08 08:06:34;;;;;;;12.68;11.35;;;25.60;99.90;;;;;;5040916;28;20144;-48
2023/09/08 08:08:59;;;;;;;13.25;11.93;;;25.60;99.90;;;;;;5022398;28;20049;-50
2023/09/08 08:11:26;;;;;;;12.38;11.18;;;25.60;99.90;;;;;;5021445;28;20411;-50
2023/09/08 08:13:52;;;;;;;12.13;11.00;;;25.70;99.90;;;;;;5023973;28;20415;-50
2023/09/08 08:16:17;;;;;;;12.77;11.63;;;25.70;99.90;;;;;;5041508;28;20033;-49
2023/09/08 08:18:43;;;;;;;15.05;11.77;;;25.80;99.90;;;;;;5042235;28;20041;-48
2023/09/08 08:21:08;;;;;;;13.35;11.60;;;25.90;99.90;;;;;;5042786;28;20073;-49
2023/09/08 08:23:36;;;;;;;13.02;11.82;;;25.80;99.90;;;;;;5017580;28;20061;-50
2023/09/08 08:26:01;;;;;;;13.27;11.90;;;25.80;99.90;;;;;;5006682;28;20060;-49
2023/09/08 08:28:27;;;;;;;12.93;11.63;;;25.80;99.90;;;;;;5041165;28;20052;-51
2023/09/08 08:30:52;;;;;;;12.82;11.40;;;25.90;99.90;;;;;;5024495;28;20440;-49
2023/09/08 08:33:19;;;;;;;13.25;11.95;;;25.90;99.90;;;;;;5021931;28;20052;-49
2023/09/08 08:35:50;;;;;;;13.00;11.75;;;26.10;99.90;;;;;;5024312;28;20052;-49
2023/09/08 08:38:22;;;;;;;13.27;11.95;;;26.00;99.90;;;;;;5022711;28;20099;-49
2023/09/08 08:40:56;;;;;;;13.27;11.90;;;26.10;99.90;;;;;;5021130;28;20492;-49
2023/09/08 08:43:24;;;;;;;16.27;12.75;;;26.20;99.90;;;;;;5018192;28;20041;-48
2023/09/08 08:45:50;;;;;;;12.48;11.10;;;26.30;99.90;;;;;;4992502;28;20502;-48
2023/09/08 08:48:20;;;;;;;12.10;11.07;;;26.30;99.90;;;;;;5037317;28;20107;-49
2023/09/08 08:50:47;;;;;;;12.43;11.27;;;26.30;99.90;;;;;;5019775;28;20053;-48
2023/09/08 08:53:13;;;;;;;12.30;11.02;;;26.30;99.90;;;;;;5042814;28;20609;-50
2023/09/08 08:55:39;;;;;;;12.18;10.93;;;26.40;99.90;;;;;;5043563;28;20068;-49
2023/09/08 08:58:05;;;;;;;14.35;10.38;;;26.30;99.90;;;;;;5009269;28;20140;-49
2023/09/08 09:00:35;;;;;;;12.77;11.00;;;26.30;99.90;;;;;;5025189;28;20041;-48
2023/09/08 09:03:03;;;;;;;11.40;10.25;;;26.40;99.90;;;;;;5042840;28;20510;-49
2023/09/08 09:05:30;;;;;;;10.88;9.30;;;26.30;99.90;;;;;;5043054;28;20068;-49
2023/09/08 09:07:58;;;;;;;13.07;10.10;;;26.50;99.90;;;;;;5025201;28;20056;-48
2023/09/08 09:10:24;;;;;;;13.00;10.48;;;26.50;99.90;;;;;;5008931;28;20053;-49
2023/09/08 09:12:49;;;;;;;10.77;9.75;;;26.60;99.90;;;;;;5025168;28;20091;-48
2023/09/08 09:15:16;;;;;;;10.68;9.63;;;26.60;99.90;;;;;;5043013;28;20049;-50
2023/09/08 09:17:41;;;;;;;11.35;10.35;;;26.60;99.90;;;;;;5043430;28;20119;-51
2023/09/08 09:20:15;;;;;;;10.68;9.68;;;26.70;99.90;;;;;;5043937;28;20175;-50
2023/09/08 09:22:41;;;;;;;11.25;10.15;;;26.70;99.80;;;;;;5043452;28;20041;-50
2023/09/08 09:25:07;;;;;;;10.32;9.27;;;26.70;99.90;;;;;;5043370;28;20041;-50
2023/09/08 09:27:38;;;;;;;10.48;9.40;;;26.80;99.80;;;;;;5026193;28;20056;-50
2023/09/08 09:30:05;;;;;;;13.32;8.82;;;26.80;99.60;;;;;;5047784;28;20045;-49
2023/09/08 09:32:31;;;;;;;10.80;9.80;;;26.90;99.90;;;;;;5047138;28;20064;-51
2023/09/08 09:34:57;;;;;;;11.05;9.52;;;26.90;99.90;;;;;;5047689;28;20040;-50
2023/09/08 09:37:23;;;;;;;10.43;9.32;;;26.90;99.90;;;;;;5047653;28;20424;-47
2023/09/08 09:39:50;;;;;;;9.88;8.95;;;27.00;99.90;;;;;;5047458;28;20559;-48
2023/09/08 09:42:16;;;;;;;9.88;8.88;;;27.00;99.90;;;;;;5028623;28;20049;-48
2023/09/08 09:44:42;;;;;;;10.73;9.20;;;27.20;99.90;;;;;;5047062;28;20375;-47
2023/09/08 09:47:09;;;;;;;11.00;8.98;;;27.30;99.90;;;;;;5022400;28;20045;-47
2023/09/08 09:49:42;;;;;;;12.48;8.93;;;27.30;99.90;;;;;;5029169;28;20048;-51
2023/09/08 09:52:08;;;;;;;13.82;10.25;;;27.30;99.90;;;;;;5046393;28;20123;-47
2023/09/08 09:54:34;;;;;;;11.30;9.63;;;27.40;99.90;;;;;;5046704;28;20037;-48
2023/09/08 09:57:01;;;;;;;10.10;9.07;;;27.50;99.90;;;;;;5012320;28;20132;-49
2023/09/08 09:59:27;;;;;;;12.95;8.98;;;27.60;99.90;;;;;;5046486;28;20069;-48
2023/09/08 10:01:53;;;;;;;10.93;9.82;;;27.70;99.90;;;;;;5047078;28;20056;-49
2023/09/08 10:04:19;;;;;;;10.93;9.85;;;27.70;99.90;;;;;;5045831;28;20045;-49
2023/09/08 10:06:46;;;;;;;10.43;8.60;;;27.80;99.90;;;;;;5014730;28;20353;-47
2023/09/08 10:09:13;;;;;;;12.38;9.45;;;27.80;99.90;;;;;;5046096;28;20089;-50
2023/09/08 10:11:49;;;;;;;9.55;8.63;;;27.90;99.90;;;;;;5045685;28;20052;-49
2023/09/08 10:14:17;;;;;;;11.25;10.07;;;27.90;99.90;;;;;;5027793;28;20041;-48
2023/09/08 10:16:49;;;;;;;12.02;9.05;;;27.90;99.90;;;;;;5028044;28;20055;-48
2023/09/08 10:19:16;;;;;;;10.93;9.25;;;27.90;99.90;;;;;;5046147;28;20037;-51
2023/09/08 10:21:44;;;;;;;10.43;9.38;;;28.00;99.90;;;;;;5046222;28;20037;-52
2023/09/08 10:24:33;;;;;;;9.98;9.07;;;28.00;99.90;;;;;;5045483;28;20190;-48
2023/09/08 10:27:09;;;;;;;9.10;8.30;;;28.10;99.90;;;;;;5036019;28;20049;-49
2023/09/08 10:29:35;;;;;;;9.00;8.05;;;28.00;99.90;;;;;;5049923;28;20115;-48
2023/09/08 10:32:02;;;;;;;9.20;8.02;;;28.00;99.90;;;;;;5050906;28;20441;-51
2023/09/08 10:34:29;;;;;;;10.98;7.97;;;28.00;99.90;;;;;;5018434;28;20087;-50
2023/09/08 10:36:55;;;;;;;9.38;8.48;;;28.00;99.90;;;;;;5034719;28;20036;-48
2023/09/08 10:39:35;;;;;;;9.85;8.10;;;28.00;99.90;;;;;;5047255;28;20053;-48
2023/09/08 10:42:34;;;;;;;10.05;7.70;;;27.90;99.90;;;;;;5045571;28;20043;-47
2023/09/08 10:45:04;;;;;;;11.98;7.63;;;28.00;99.70;;;;;;5011639;28;20509;-47
2023/09/08 10:47:46;;;;;;;8.35;7.63;;;28.00;99.90;;;;;;5024336;28;20995;-47
2023/09/08 10:50:38;;;;;;;8.82;7.90;;;28.10;99.90;;;;;;5010873;28;20040;-48
2023/09/08 10:53:15;;;;;;;8.77;7.90;;;28.00;99.90;;;;;;5045016;28;20128;-49
2023/09/08 10:55:43;;;;;;;8.27;7.40;;;28.00;99.90;;;;;;5044712;28;20645;-50
2023/09/08 10:58:10;;;;;;;9.45;7.88;;;28.10;99.90;;;;;;5026863;28;20048;-48
2023/09/08 11:00:54;;;;;;;8.93;7.25;;;28.10;99.90;;;;;;5044726;28;20136;-50
2023/09/08 11:03:49;;;;;;;10.38;8.60;;;28.10;99.90;;;;;;5024447;28;20143;-48
2023/09/08 11:06:19;;;;;;;8.18;7.38;;;28.20;99.70;;;;;;5026532;28;20060;-49
2023/09/08 11:08:45;;;;;;;9.18;7.47;;;28.20;99.90;;;;;;5024628;28;20071;-48
2023/09/08 11:11:12;;;;;;;9.23;7.95;;;28.20;99.90;;;;;;5026642;28;20637;-49
2023/09/08 11:13:41;;;;;;;7.80;7.00;;;28.20;99.30;;;;;;5042028;28;20049;-48
2023/09/08 11:16:07;;;;;;;11.20;7.35;;;28.20;99.40;;;;;;5041640;28;20127;-48
2023/09/08 11:18:34;;;;;;;8.38;7.25;;;28.30;99.30;;;;;;5009968;28;20049;-49
2023/09/08 11:21:04;;;;;;;7.90;7.30;;;28.40;98.70;;;;;;5044677;28;20084;-50
2023/09/08 11:23:31;;;;;;;7.88;7.18;;;28.40;99.30;;;;;;5047253;28;20040;-49
2023/09/08 11:25:58;;;;;;;8.27;7.22;;;28.50;99.00;;;;;;5048048;28;20247;-50
2023/09/08 11:28:26;;;;;;;9.73;7.65;;;28.60;99.00;;;;;;5028108;28;20041;-50
2023/09/08 11:30:53;;;;;;;8.07;7.07;;;28.60;99.60;;;;;;5038806;28;20109;-51
2023/09/08 11:33:24;;;;;;;8.43;7.63;;;28.50;99.90;;;;;;5052833;28;20393;-49
2023/09/08 11:35:52;;;;;;;9.35;7.82;;;28.50;99.90;;;;;;5053381;28;20044;-50
2023/09/08 11:38:19;;;;;;;8.63;7.40;;;28.50;99.90;;;;;;5052023;28;20041;-48
2023/09/08 11:40:45;;;;;;;11.63;7.55;;;28.60;99.60;;;;;;5044850;28;20044;-49
2023/09/08 11:43:11;;;;;;;8.27;7.25;;;28.60;99.30;;;;;;5026408;28;20603;-50
2023/09/08 11:45:37;;;;;;;9.88;7.45;;;28.60;99.50;;;;;;5044686;28;20079;-51
2023/09/08 11:48:04;;;;;;;8.90;7.45;;;28.60;99.00;;;;;;5037286;28;20136;-50
2023/09/08 11:50:31;;;;;;;8.57;7.55;;;28.70;99.20;;;;;;5044059;28;20621;-48
2023/09/08 11:53:02;;;;;;;9.40;7.80;;;28.70;99.70;;;;;;5044300;28;20044;-49
2023/09/08 11:55:28;;;;;;;8.65;7.47;;;28.80;99.80;;;;;;5044515;28;20131;-48
2023/09/08 11:57:57;;;;;;;8.30;7.28;;;28.70;99.80;;;;;;5040503;28;20072;-50
2023/09/08 12:00:25;;;;;;;13.38;8.18;;;28.80;99.40;;;;;;5043177;28;20036;-49
2023/09/08 12:02:51;;;;;;;10.43;8.02;;;28.80;99.50;;;;;;5042718;28;20035;-52
2023/09/08 12:05:25;;;;;;;8.65;7.70;;;28.70;99.50;;;;;;5043106;28;20119;-52
2023/09/08 12:07:51;;;;;;;7.88;7.18;;;28.80;98.70;;;;;;5040339;28;20108;-51
2023/09/08 12:10:18;;;;;;;9.15;7.43;;;28.70;99.80;;;;;;5021839;28;20507;-49
2023/09/08 12:12:49;;;;;;;11.05;7.30;;;28.70;99.40;;;;;;5023441;28;20053;-50
2023/09/08 12:15:33;;;;;;;10.05;8.13;;;28.70;98.80;;;;;;5042456;28;20467;-51
2023/09/08 12:18:00;;;;;;;8.75;7.45;;;28.70;99.90;;;;;;5043079;28;20044;-50
2023/09/08 12:20:26;;;;;;;12.43;8.38;;;28.80;99.10;;;;;;5043155;28;20615;-49
2023/09/08 12:22:52;;;;;;;9.07;7.68;;;28.70;99.50;;;;;;5024586;28;20072;-52
2023/09/08 12:25:18;;;;;;;8.35;7.55;;;28.80;99.00;;;;;;5041777;28;20044;-49
2023/09/08 12:27:45;;;;;;;8.90;7.75;;;28.80;99.70;;;;;;5024689;28;20610;-51
2023/09/08 12:30:17;;;;;;;8.90;8.07;;;28.90;99.00;;;;;;5042693;28;20091;-51